sensor_id;sensor_type;location;lat;lon;timestamp;pressure;altitude;pressure_sealevel;temperature;humidity
78354;BME280;67629;46.040;18.232;2023-05-01T00:01:44;99906.66;;;10.81;68.91
78354;BME280;67629;46.040;18.232;2023-05-01T00:02:47;99908.28;;;10.82;68.80
78354;BME280;67629;46.040;18.232;2023-05-01T00:03:50;99904.97;;;10.80;68.53
78354;BME280;67629;46.040;18.232;2023-05-01T00:05:14;99915.66;;;10.82;68.55
78354;BME280;67629;46.040;18.232;2023-05-01T00:06:17;99906.66;;;10.81;69.62
78354;BME280;67629;46.040;18.232;2023-05-01T00:12:21;99904.59;;;10.77;71.02
78354;BME280;67629;46.040;18.232;2023-05-01T00:14:02;99911.16;;;10.76;71.28
78354;BME280;67629;46.040;18.232;2023-05-01T00:16:42;99907.22;;;10.83;71.08
78354;BME280;67629;46.040;18.232;2023-05-01T00:18:48;99907.59;;;10.87;71.49
78354;BME280;67629;46.040;18.232;2023-05-01T00:20:29;99908.44;;;10.88;71.63
78354;BME280;67629;46.040;18.232;2023-05-01T00:22:31;99911.03;;;10.82;72.37
78354;BME280;67629;46.040;18.232;2023-05-01T00:24:36;99913.28;;;10.85;72.09
78354;BME280;67629;46.040;18.232;2023-05-01T00:26:17;99908.44;;;10.88;72.44
78354;BME280;67629;46.040;18.232;2023-05-01T00:27:57;99906.28;;;10.90;72.26
78354;BME280;67629;46.040;18.232;2023-05-01T00:29:39;99905.44;;;10.89;72.62
78354;BME280;67629;46.040;18.232;2023-05-01T00:31:22;99915.41;;;10.95;72.18
78354;BME280;67629;46.040;18.232;2023-05-01T00:33:03;99910.53;;;10.85;72.89
78354;BME280;67629;46.040;18.232;2023-05-01T00:34:46;99905.06;;;10.85;73.42
78354;BME280;67629;46.040;18.232;2023-05-01T00:36:27;99909.84;;;10.90;72.75
78354;BME280;67629;46.040;18.232;2023-05-01T00:38:33;99909.00;;;10.90;73.11
78354;BME280;67629;46.040;18.232;2023-05-01T00:41:13;99912.22;;;10.86;73.16
78354;BME280;67629;46.040;18.232;2023-05-01T00:43:56;99914.38;;;10.84;73.37
78354;BME280;67629;46.040;18.232;2023-05-01T00:45:37;99913.63;;;10.77;74.02
78354;BME280;67629;46.040;18.232;2023-05-01T00:47:39;99913.16;;;10.69;74.49
78354;BME280;67629;46.040;18.232;2023-05-01T00:49:46;99920.63;;;10.73;73.96
78354;BME280;67629;46.040;18.232;2023-05-01T00:51:28;99920.06;;;10.71;74.23
78354;BME280;67629;46.040;18.232;2023-05-01T00:52:52;99914.59;;;10.71;74.23
78354;BME280;67629;46.040;18.232;2023-05-01T00:53:56;99918.75;;;10.74;74.48
78354;BME280;67629;46.040;18.232;2023-05-01T00:55:37;99917.31;;;10.71;74.46
78354;BME280;67629;46.040;18.232;2023-05-01T00:57:42;99923.72;;;10.77;74.13
78354;BME280;67629;46.040;18.232;2023-05-01T00:59:47;99924.47;;;10.72;74.25
78354;BME280;67629;46.040;18.232;2023-05-01T01:01:28;99928.63;;;10.75;74.45
78354;BME280;67629;46.040;18.232;2023-05-01T01:03:50;99920.63;;;10.73;74.90
78354;BME280;67629;46.040;18.232;2023-05-01T01:08:55;99923.84;;;10.82;74.34
78354;BME280;67629;46.040;18.232;2023-05-01T01:11:37;99921.47;;;10.74;74.74
78354;BME280;67629;46.040;18.232;2023-05-01T01:13:53;99922.69;;;10.78;74.60
78354;BME280;67629;46.040;18.232;2023-05-01T01:15:42;99919.00;;;10.72;74.75
78354;BME280;67629;46.040;18.232;2023-05-01T01:21:30;99929.56;;;10.69;75.40
78354;BME280;67629;46.040;18.232;2023-05-01T01:27:57;99924.81;;;10.76;74.91
78354;BME280;67629;46.040;18.232;2023-05-01T01:33:59;99925.88;;;10.75;74.93
78354;BME280;67629;46.040;18.232;2023-05-01T01:35:45;99925.16;;;10.79;74.91
78354;BME280;67629;46.040;18.232;2023-05-01T01:41:06;99931.09;;;10.88;73.75
78354;BME280;67629;46.040;18.232;2023-05-01T01:42:50;99928.72;;;10.92;74.06
78354;BME280;67629;46.040;18.232;2023-05-01T01:45:17;99926.09;;;10.97;73.78
78354;BME280;67629;46.040;18.232;2023-05-01T01:47:21;99931.91;;;11.00;73.54
78354;BME280;67629;46.040;18.232;2023-05-01T01:50:28;99923.50;;;11.02;72.87
78354;BME280;67629;46.040;18.232;2023-05-01T01:52:31;99916.81;;;11.09;72.62
78354;BME280;67629;46.040;18.232;2023-05-01T01:54:54;99919.31;;;11.11;71.74
78354;BME280;67629;46.040;18.232;2023-05-01T01:57:26;99914.94;;;11.10;71.36
78354;BME280;67629;46.040;18.232;2023-05-01T01:59:49;99924.09;;;11.04;72.09
78354;BME280;67629;46.040;18.232;2023-05-01T02:01:31;99919.47;;;10.93;72.07
78354;BME280;67629;46.040;18.232;2023-05-01T02:03:38;99920.31;;;10.93;72.16
78354;BME280;67629;46.040;18.232;2023-05-01T02:05:20;99913.28;;;10.85;72.07
78354;BME280;67629;46.040;18.232;2023-05-01T02:07:01;99916.38;;;10.77;73.05
78354;BME280;67629;46.040;18.232;2023-05-01T02:08:43;99917.31;;;10.71;73.05
78354;BME280;67629;46.040;18.232;2023-05-01T02:10:26;99916.16;;;10.67;73.54
78354;BME280;67629;46.040;18.232;2023-05-01T02:13:09;99909.59;;;10.57;73.62
78354;BME280;67629;46.040;18.232;2023-05-01T02:14:51;99913.53;;;10.49;73.89
78354;BME280;67629;46.040;18.232;2023-05-01T02:16:32;99910.66;;;10.44;74.26
78354;BME280;67629;46.040;18.232;2023-05-01T02:18:14;99909.59;;;10.45;73.90
78354;BME280;67629;46.040;18.232;2023-05-01T02:20:36;99919.19;;;10.36;74.54
78354;BME280;67629;46.040;18.232;2023-05-01T02:22:17;99910.41;;;10.34;74.55
78354;BME280;67629;46.040;18.232;2023-05-01T02:23:59;99914.53;;;10.25;74.96
78354;BME280;67629;46.040;18.232;2023-05-01T02:26:29;99914.28;;;10.15;75.47
78354;BME280;67629;46.040;18.232;2023-05-01T02:28:36;99915.78;;;10.11;75.21
78354;BME280;67629;46.040;18.232;2023-05-01T02:30:23;99912.94;;;10.06;75.75
78354;BME280;67629;46.040;18.232;2023-05-01T02:33:04;99918.47;;;9.99;76.06
78354;BME280;67629;46.040;18.232;2023-05-01T02:36:40;99907.44;;;9.94;75.67
78354;BME280;67629;46.040;18.232;2023-05-01T02:38:42;99914.88;;;9.87;76.25
78354;BME280;67629;46.040;18.232;2023-05-01T02:40:31;99913.91;;;9.82;76.42
78354;BME280;67629;46.040;18.232;2023-05-01T02:42:14;99912.97;;;9.88;75.71
78354;BME280;67629;46.040;18.232;2023-05-01T02:44:20;99916.47;;;9.95;75.66
78354;BME280;67629;46.040;18.232;2023-05-01T02:46:02;99913.59;;;9.90;75.83
78354;BME280;67629;46.040;18.232;2023-05-01T02:47:43;99912.03;;;9.82;76.17
78354;BME280;67629;46.040;18.232;2023-05-01T02:49:26;99909.53;;;9.81;76.08
78354;BME280;67629;46.040;18.232;2023-05-01T02:51:10;99911.75;;;9.72;76.50
78354;BME280;67629;46.040;18.232;2023-05-01T02:52:51;99908.31;;;9.77;76.06
78354;BME280;67629;46.040;18.232;2023-05-01T02:54:31;99907.44;;;9.64;76.66
78354;BME280;67629;46.040;18.232;2023-05-01T02:56:12;99914.91;;;9.57;77.02
78354;BME280;67629;46.040;18.232;2023-05-01T02:58:02;99914.91;;;9.57;76.97
78354;BME280;67629;46.040;18.232;2023-05-01T02:58:50;99920.94;;;9.59;76.86
78354;BME280;67629;46.040;18.232;2023-05-01T02:59:53;99918.22;;;9.59;77.03
78354;BME280;67629;46.040;18.232;2023-05-01T03:01:34;99916.78;;;9.57;76.70
78354;BME280;67629;46.040;18.232;2023-05-01T03:04:16;99911.66;;;9.49;76.93
78354;BME280;67629;46.040;18.232;2023-05-01T03:05:40;99917.63;;;9.39;77.52
78354;BME280;67629;46.040;18.232;2023-05-01T03:07:21;99910.53;;;9.38;77.65
78354;BME280;67629;46.040;18.232;2023-05-01T03:09:24;99913.94;;;9.34;77.45
78354;BME280;67629;46.040;18.232;2023-05-01T03:11:31;99910.47;;;9.27;77.58
78354;BME280;67629;46.040;18.232;2023-05-01T03:14:13;99910.69;;;9.25;77.92
78354;BME280;67629;46.040;18.232;2023-05-01T03:16:35;99907.38;;;9.23;77.75
78354;BME280;67629;46.040;18.232;2023-05-01T03:19:17;99917.50;;;9.16;77.83
78354;BME280;67629;46.040;18.232;2023-05-01T03:21:22;99914.19;;;9.14;78.07
78354;BME280;67629;46.040;18.232;2023-05-01T03:23:03;99920.91;;;9.11;77.18
78354;BME280;67629;46.040;18.232;2023-05-01T03:24:43;99918.78;;;9.13;77.69
78354;BME280;67629;46.040;18.232;2023-05-01T03:26:24;99921.75;;;9.12;77.62
78354;BME280;67629;46.040;18.232;2023-05-01T03:28:05;99921.75;;;9.12;77.89
78354;BME280;67629;46.040;18.232;2023-05-01T03:30:26;99928.50;;;9.09;77.01
78354;BME280;67629;46.040;18.232;2023-05-01T03:32:49;99929.31;;;9.10;77.59
78354;BME280;67629;46.040;18.232;2023-05-01T03:34:47;99922.34;;;9.14;76.79
78354;BME280;67629;46.040;18.232;2023-05-01T03:36:54;99918.78;;;9.13;76.53
78354;BME280;67629;46.040;18.232;2023-05-01T03:38:37;99924.63;;;9.17;77.02
78354;BME280;67629;46.040;18.232;2023-05-01T03:40:19;99926.06;;;9.20;75.52
78354;BME280;67629;46.040;18.232;2023-05-01T03:42:00;99931.91;;;9.23;75.62
78354;BME280;67629;46.040;18.232;2023-05-01T03:46:02;99933.72;;;9.29;75.12
78354;BME280;67629;46.040;18.232;2023-05-01T03:47:43;99930.16;;;9.29;74.49
78354;BME280;67629;46.040;18.232;2023-05-01T03:49:45;99935.59;;;9.29;74.31
78354;BME280;67629;46.040;18.232;2023-05-01T03:51:51;99924.63;;;9.35;74.49
78354;BME280;67629;46.040;18.232;2023-05-01T03:54:31;99933.63;;;9.36;73.70
78354;BME280;67629;46.040;18.232;2023-05-01T03:56:12;99931.72;;;9.36;73.69
78354;BME280;67629;46.040;18.232;2023-05-01T03:57:53;99928.53;;;9.39;73.80
78354;BME280;67629;46.040;18.232;2023-05-01T04:00:38;99933.09;;;9.45;73.41
78354;BME280;67629;46.040;18.232;2023-05-01T04:02:18;99928.47;;;9.46;73.87
78354;BME280;67629;46.040;18.232;2023-05-01T04:03:59;99928.78;;;9.38;74.28
78354;BME280;67629;46.040;18.232;2023-05-01T04:05:39;99932.81;;;9.35;73.74
78354;BME280;67629;46.040;18.232;2023-05-01T04:08:00;99936.72;;;9.39;74.10
78354;BME280;67629;46.040;18.232;2023-05-01T04:10:30;99928.16;;;9.36;74.73
78354;BME280;67629;46.040;18.232;2023-05-01T04:12:36;99927.72;;;9.39;73.77
78354;BME280;67629;46.040;18.232;2023-05-01T04:15:18;99924.44;;;9.48;72.83
78354;BME280;67629;46.040;18.232;2023-05-01T04:18:15;99924.38;;;9.55;72.76
78354;BME280;67629;46.040;18.232;2023-05-01T04:20:17;99936.00;;;9.62;72.14
78354;BME280;67629;46.040;18.232;2023-05-01T04:21:59;99927.75;;;9.68;72.06
78354;BME280;67629;46.040;18.232;2023-05-01T04:23:40;99936.16;;;9.67;71.48
78354;BME280;67629;46.040;18.232;2023-05-01T04:25:38;99936.16;;;9.67;72.13
78354;BME280;67629;46.040;18.232;2023-05-01T04:27:18;99937.94;;;9.73;71.73
78354;BME280;67629;46.040;18.232;2023-05-01T04:28:59;99948.97;;;9.66;71.98
78354;BME280;67629;46.040;18.232;2023-05-01T04:30:41;99937.34;;;9.71;72.31
78354;BME280;67629;46.040;18.232;2023-05-01T04:32:22;99937.28;;;9.78;71.95
78354;BME280;67629;46.040;18.232;2023-05-01T04:34:03;99940.69;;;9.73;72.38
78354;BME280;67629;46.040;18.232;2023-05-01T04:35:44;99933.72;;;9.77;71.34
78354;BME280;67629;46.040;18.232;2023-05-01T04:38:25;99942.94;;;9.76;71.86
78354;BME280;67629;46.040;18.232;2023-05-01T04:40:06;99938.00;;;9.85;72.05
78354;BME280;67629;46.040;18.232;2023-05-01T04:41:47;99938.84;;;9.85;71.10
78354;BME280;67629;46.040;18.232;2023-05-01T04:45:50;99935.56;;;9.95;71.70
78354;BME280;67629;46.040;18.232;2023-05-01T04:47:31;99937.81;;;9.98;71.82
78354;BME280;67629;46.040;18.232;2023-05-01T04:50:42;99936.78;;;10.10;71.00
78354;BME280;67629;46.040;18.232;2023-05-01T04:52:09;99935.88;;;10.16;71.96
78354;BME280;67629;46.040;18.232;2023-05-01T04:53:13;99939.34;;;10.23;69.87
78354;BME280;67629;46.040;18.232;2023-05-01T04:54:53;99943.88;;;10.29;69.92
78354;BME280;67629;46.040;18.232;2023-05-01T04:56:33;99945.81;;;10.41;69.46
78354;BME280;67629;46.040;18.232;2023-05-01T04:57:58;99944.13;;;10.40;70.26
78354;BME280;67629;46.040;18.232;2023-05-01T04:58:46;99946.38;;;10.43;69.85
78354;BME280;67629;46.040;18.232;2023-05-01T04:59:49;99940.00;;;10.49;68.61
78354;BME280;67629;46.040;18.232;2023-05-01T05:01:30;99944.03;;;10.58;68.35
78354;BME280;67629;46.040;18.232;2023-05-01T05:04:33;99945.09;;;10.68;67.86
78354;BME280;67629;46.040;18.232;2023-05-01T05:06:14;99946.44;;;10.77;67.79
78354;BME280;67629;46.040;18.232;2023-05-01T05:08:36;99943.81;;;10.82;68.62
78354;BME280;67629;46.040;18.232;2023-05-01T05:10:17;99948.69;;;10.80;67.49
78354;BME280;67629;46.040;18.232;2023-05-01T05:11:58;99950.59;;;10.92;68.12
78354;BME280;67629;46.040;18.232;2023-05-01T05:13:40;99950.47;;;10.98;66.69
78354;BME280;67629;46.040;18.232;2023-05-01T05:15:21;99959.25;;;11.00;68.20
78354;BME280;67629;46.040;18.232;2023-05-01T05:17:01;99952.81;;;11.18;65.96
78354;BME280;67629;46.040;18.232;2023-05-01T05:18:43;99961.38;;;11.21;66.78
78354;BME280;67629;46.040;18.232;2023-05-01T05:20:25;99943.38;;;11.37;65.59
78354;BME280;67629;46.040;18.232;2023-05-01T05:22:20;99940.97;;;11.52;64.53
78354;BME280;67629;46.040;18.232;2023-05-01T05:24:03;99936.66;;;11.79;63.93
78354;BME280;67629;46.040;18.232;2023-05-01T05:26:05;99940.00;;;11.98;62.33
78354;BME280;67629;46.040;18.232;2023-05-01T05:27:45;99942.44;;;12.11;62.47
78354;BME280;67629;46.040;18.232;2023-05-01T05:29:26;99946.22;;;12.38;61.28
78354;BME280;67629;46.040;18.232;2023-05-01T05:32:18;99946.00;;;12.56;62.81
78354;BME280;67629;46.040;18.232;2023-05-01T05:34:41;99943.75;;;12.70;61.14
78354;BME280;67629;46.040;18.232;2023-05-01T05:36:43;99943.75;;;12.70;60.85
78354;BME280;67629;46.040;18.232;2023-05-01T05:39:53;99947.72;;;12.79;59.72
78354;BME280;67629;46.040;18.232;2023-05-01T05:41:58;99951.78;;;12.93;60.31
78354;BME280;67629;46.040;18.232;2023-05-01T05:43:39;99949.38;;;12.97;61.01
78354;BME280;67629;46.040;18.232;2023-05-01T05:45:43;99948.53;;;12.96;59.63
78354;BME280;67629;46.040;18.232;2023-05-01T05:46:47;99952.41;;;13.00;59.31
78354;BME280;67629;46.040;18.232;2023-05-01T05:48:30;99951.41;;;13.06;57.06
78354;BME280;67629;46.040;18.232;2023-05-01T05:50:36;99951.84;;;13.15;57.81
78354;BME280;67629;46.040;18.232;2023-05-01T05:51:39;99939.25;;;13.36;58.63
78354;BME280;67629;46.040;18.232;2023-05-01T05:54:00;99950.09;;;13.26;57.09
78354;BME280;67629;46.040;18.232;2023-05-01T05:56:32;99952.41;;;13.34;55.85
78354;BME280;67629;46.040;18.232;2023-05-01T05:58:13;99938.47;;;13.40;56.48
78354;BME280;67629;46.040;18.232;2023-05-01T06:01:42;99949.66;;;13.34;56.80
78354;BME280;67629;46.040;18.232;2023-05-01T06:03:23;99944.69;;;13.31;57.17
78354;BME280;67629;46.040;18.232;2023-05-01T06:05:44;99952.50;;;13.22;56.19
78354;BME280;67629;46.040;18.232;2023-05-01T06:08:27;99948.44;;;13.25;55.74
78354;BME280;67629;46.040;18.232;2023-05-01T06:10:08;99957.88;;;13.34;56.83
78354;BME280;67629;46.040;18.232;2023-05-01T06:12:10;99970.50;;;13.35;56.96
78354;BME280;67629;46.040;18.232;2023-05-01T06:15:09;99968.53;;;13.30;56.67
78354;BME280;67629;46.040;18.232;2023-05-01T06:16:53;99969.19;;;13.37;56.89
78354;BME280;67629;46.040;18.232;2023-05-01T06:18:59;99968.94;;;13.39;58.61
78354;BME280;67629;46.040;18.232;2023-05-01T06:20:40;99971.03;;;13.53;57.88
78354;BME280;67629;46.040;18.232;2023-05-01T06:22:06;99964.03;;;13.62;57.33
78354;BME280;67629;46.040;18.232;2023-05-01T06:23:47;99958.34;;;13.47;55.48
78354;BME280;67629;46.040;18.232;2023-05-01T06:25:28;99971.78;;;13.49;56.98
78354;BME280;67629;46.040;18.232;2023-05-01T06:28:18;99967.22;;;13.54;56.98
78354;BME280;67629;46.040;18.232;2023-05-01T06:30:53;99968.41;;;13.63;56.20
78354;BME280;67629;46.040;18.232;2023-05-01T06:33:50;99967.84;;;13.61;55.63
78354;BME280;67629;46.040;18.232;2023-05-01T06:35:32;99969.53;;;13.62;56.12
78354;BME280;67629;46.040;18.232;2023-05-01T06:37:34;99968.56;;;13.74;57.03
78354;BME280;67629;46.040;18.232;2023-05-01T06:41:50;99964.91;;;13.90;57.09
78354;BME280;67629;46.040;18.232;2023-05-01T06:44:15;99975.25;;;13.83;56.50
78354;BME280;67629;46.040;18.232;2023-05-01T06:45:56;99975.38;;;13.93;56.10
78354;BME280;67629;46.040;18.232;2023-05-01T06:47:37;99971.91;;;13.81;54.91
78354;BME280;67629;46.040;18.232;2023-05-01T06:49:19;99973.88;;;13.80;56.47
78354;BME280;67629;46.040;18.232;2023-05-01T06:53:45;99978.75;;;13.78;56.28
78354;BME280;67629;46.040;18.232;2023-05-01T06:54:48;99982.66;;;13.82;58.30
78354;BME280;67629;46.040;18.232;2023-05-01T06:57:30;99972.59;;;14.14;56.75
78354;BME280;67629;46.040;18.232;2023-05-01T06:59:37;99974.84;;;14.17;56.63
78354;BME280;67629;46.040;18.232;2023-05-01T07:01:19;99975.44;;;14.24;56.59
78354;BME280;67629;46.040;18.232;2023-05-01T07:03:01;99965.25;;;14.20;56.58
78354;BME280;67629;46.040;18.232;2023-05-01T07:04:43;99969.19;;;14.29;56.98
78354;BME280;67629;46.040;18.232;2023-05-01T07:06:06;99974.09;;;14.49;56.83
78354;BME280;67629;46.040;18.232;2023-05-01T07:07:10;99973.63;;;14.62;56.24
78354;BME280;67629;46.040;18.232;2023-05-01T07:09:55;99971.38;;;14.54;56.05
78354;BME280;67629;46.040;18.232;2023-05-01T07:12:17;99976.91;;;14.91;54.23
78354;BME280;67629;46.040;18.232;2023-05-01T07:14:25;99973.13;;;14.65;56.05
78354;BME280;67629;46.040;18.232;2023-05-01T07:16:06;99995.28;;;14.85;54.46
78354;BME280;67629;46.040;18.232;2023-05-01T07:18:08;99970.66;;;14.63;54.81
78354;BME280;67629;46.040;18.232;2023-05-01T07:20:16;99976.81;;;15.12;56.44
78354;BME280;67629;46.040;18.232;2023-05-01T07:21:57;99978.78;;;15.22;55.34
78354;BME280;67629;46.040;18.232;2023-05-01T07:25:23;99990.25;;;15.09;54.24
78354;BME280;67629;46.040;18.232;2023-05-01T07:27:04;99981.72;;;15.10;54.73
78354;BME280;67629;46.040;18.232;2023-05-01T07:28:46;99980.00;;;14.99;54.37
78354;BME280;67629;46.040;18.232;2023-05-01T07:31:10;99985.09;;;15.22;55.01
78354;BME280;67629;46.040;18.232;2023-05-01T07:34:29;99991.31;;;15.03;54.18
78354;BME280;67629;46.040;18.232;2023-05-01T07:36:10;99991.63;;;15.11;53.61
78354;BME280;67629;46.040;18.232;2023-05-01T07:38:14;99981.63;;;15.37;54.59
78354;BME280;67629;46.040;18.232;2023-05-01T07:40:19;99969.00;;;14.99;54.78
78354;BME280;67629;46.040;18.232;2023-05-01T07:43:01;99988.94;;;15.21;54.19
78354;BME280;67629;46.040;18.232;2023-05-01T07:46:11;99987.00;;;15.17;54.75
78354;BME280;67629;46.040;18.232;2023-05-01T07:48:54;99981.28;;;15.23;54.01
78354;BME280;67629;46.040;18.232;2023-05-01T07:51:55;99987.03;;;15.64;53.79
78354;BME280;67629;46.040;18.232;2023-05-01T07:53:57;99986.97;;;15.54;52.79
78354;BME280;67629;46.040;18.232;2023-05-01T07:56:07;99985.22;;;15.89;52.33
78354;BME280;67629;46.040;18.232;2023-05-01T07:57:49;99985.69;;;15.71;53.14
78354;BME280;67629;46.040;18.232;2023-05-01T07:59:55;99983.22;;;15.75;53.36
78354;BME280;67629;46.040;18.232;2023-05-01T08:01:38;99980.50;;;15.85;54.94
78354;BME280;67629;46.040;18.232;2023-05-01T08:03:21;99994.53;;;15.78;54.12
78354;BME280;67629;46.040;18.232;2023-05-01T08:06:04;99984.94;;;15.96;51.71
78354;BME280;67629;46.040;18.232;2023-05-01T08:08:26;99978.66;;;16.06;53.82
78354;BME280;67629;46.040;18.232;2023-05-01T08:10:31;99976.72;;;16.01;51.87
78354;BME280;67629;46.040;18.232;2023-05-01T08:14:34;99992.72;;;16.09;52.40
78354;BME280;67629;46.040;18.232;2023-05-01T08:16:01;99988.28;;;15.98;53.46
78354;BME280;67629;46.040;18.232;2023-05-01T08:17:05;99994.81;;;15.77;51.96
78354;BME280;67629;46.040;18.232;2023-05-01T08:19:57;99991.66;;;15.53;54.61
78354;BME280;67629;46.040;18.232;2023-05-01T08:22:06;99996.31;;;15.53;55.87
78354;BME280;67629;46.040;18.232;2023-05-01T08:24:08;99988.81;;;15.38;54.51
78354;BME280;67629;46.040;18.232;2023-05-01T08:26:52;99999.50;;;15.81;55.79
78354;BME280;67629;46.040;18.232;2023-05-01T08:29:35;99989.72;;;16.21;54.26
78354;BME280;67629;46.040;18.232;2023-05-01T08:31:40;99980.88;;;16.19;53.69
78354;BME280;67629;46.040;18.232;2023-05-01T08:33:07;99983.63;;;16.09;53.17
78354;BME280;67629;46.040;18.232;2023-05-01T08:34:11;99990.44;;;15.91;52.83
78354;BME280;67629;46.040;18.232;2023-05-01T08:36:51;99988.66;;;16.27;53.40
78354;BME280;67629;46.040;18.232;2023-05-01T08:38:57;99984.22;;;16.31;54.26
78354;BME280;67629;46.040;18.232;2023-05-01T08:40:40;99980.13;;;16.43;53.98
78354;BME280;67629;46.040;18.232;2023-05-01T08:42:23;99989.19;;;16.39;57.51
78354;BME280;67629;46.040;18.232;2023-05-01T08:45:07;99978.19;;;16.49;53.20
78354;BME280;67629;46.040;18.232;2023-05-01T08:47:06;99982.88;;;16.38;52.74
78354;BME280;67629;46.040;18.232;2023-05-01T08:48:15;99980.91;;;16.24;51.46
78354;BME280;67629;46.040;18.232;2023-05-01T08:50:18;99978.47;;;16.42;51.86
78354;BME280;67629;46.040;18.232;2023-05-01T08:52:08;99975.22;;;16.66;54.06
78354;BME280;67629;46.040;18.232;2023-05-01T08:53:14;99972.19;;;16.77;52.19
78354;BME280;67629;46.040;18.232;2023-05-01T08:55:16;99965.75;;;16.31;52.23
78354;BME280;67629;46.040;18.232;2023-05-01T08:57:23;99978.47;;;16.32;51.50
78354;BME280;67629;46.040;18.232;2023-05-01T08:59:06;99978.78;;;17.17;50.23
78354;BME280;67629;46.040;18.232;2023-05-01T09:01:53;99972.16;;;16.57;50.76
78354;BME280;67629;46.040;18.232;2023-05-01T09:03:19;99971.84;;;16.48;51.87
78354;BME280;67629;46.040;18.232;2023-05-01T09:05:22;99974.38;;;16.80;52.25
78354;BME280;67629;46.040;18.232;2023-05-01T09:07:28;99972.16;;;17.13;50.63
78354;BME280;67629;46.040;18.232;2023-05-01T09:08:53;99965.53;;;16.93;50.71
78354;BME280;67629;46.040;18.232;2023-05-01T09:11:37;99971.09;;;16.83;50.06
78354;BME280;67629;46.040;18.232;2023-05-01T09:14:18;99965.22;;;17.25;51.06
78354;BME280;67629;46.040;18.232;2023-05-01T09:17:26;99977.94;;;17.26;50.44
78354;BME280;67629;46.040;18.232;2023-05-01T09:20:05;99969.31;;;17.48;49.13
78354;BME280;67629;46.040;18.232;2023-05-01T09:22:12;99965.19;;;17.40;50.08
78354;BME280;67629;46.040;18.232;2023-05-01T09:25:32;99972.72;;;16.94;50.31
78354;BME280;67629;46.040;18.232;2023-05-01T09:27:38;99971.88;;;17.09;51.72
78354;BME280;67629;46.040;18.232;2023-05-01T09:34:02;99947.50;;;17.46;52.38
78354;BME280;67629;46.040;18.232;2023-05-01T09:38:01;99960.00;;;17.08;50.70
78354;BME280;67629;46.040;18.232;2023-05-01T09:40:25;99958.75;;;17.80;53.98
78354;BME280;67629;46.040;18.232;2023-05-01T09:43:51;99946.81;;;17.90;47.91
78354;BME280;67629;46.040;18.232;2023-05-01T09:48:21;99946.06;;;17.79;48.69
78354;BME280;67629;46.040;18.232;2023-05-01T09:50:04;99943.31;;;17.69;48.56
78354;BME280;67629;46.040;18.232;2023-05-01T09:56:44;99944.34;;;18.32;49.52
78354;BME280;67629;46.040;18.232;2023-05-01T09:58:54;99938.69;;;18.08;47.92
78354;BME280;67629;46.040;18.232;2023-05-01T10:00:46;99931.75;;;18.11;48.82
78354;BME280;67629;46.040;18.232;2023-05-01T10:04:04;99930.25;;;18.34;46.90
78354;BME280;67629;46.040;18.232;2023-05-01T10:07:11;99920.69;;;18.55;46.96
78354;BME280;67629;46.040;18.232;2023-05-01T10:08:46;99930.53;;;18.32;48.01
78354;BME280;67629;46.040;18.232;2023-05-01T10:09:50;99920.81;;;17.91;48.21
78354;BME280;67629;46.040;18.232;2023-05-01T10:11:46;99923.69;;;18.19;46.75
78354;BME280;67629;46.040;18.232;2023-05-01T10:14:07;99932.19;;;18.72;47.04
78354;BME280;67629;46.040;18.232;2023-05-01T10:15:48;99918.63;;;18.32;46.19
78354;BME280;67629;46.040;18.232;2023-05-01T10:17:29;99918.28;;;18.43;46.10
78354;BME280;67629;46.040;18.232;2023-05-01T10:19:32;99917.75;;;18.41;45.75
78354;BME280;67629;46.040;18.232;2023-05-01T10:22:31;99912.97;;;18.52;47.06
78354;BME280;67629;46.040;18.232;2023-05-01T10:24:35;99909.31;;;18.61;44.77
78354;BME280;67629;46.040;18.232;2023-05-01T10:26:56;99924.28;;;18.11;46.60
78354;BME280;67629;46.040;18.232;2023-05-01T10:33:33;99898.50;;;18.94;43.78
78354;BME280;67629;46.040;18.232;2023-05-01T10:35:20;99902.97;;;18.90;44.01
78354;BME280;67629;46.040;18.232;2023-05-01T10:38:01;99907.41;;;18.86;45.64
78354;BME280;67629;46.040;18.232;2023-05-01T10:41:10;99901.94;;;18.81;43.85
78354;BME280;67629;46.040;18.232;2023-05-01T10:44:36;99899.75;;;18.77;45.09
78354;BME280;67629;46.040;18.232;2023-05-01T10:46:42;99898.84;;;18.87;45.59
78354;BME280;67629;46.040;18.232;2023-05-01T10:50:06;99899.84;;;18.96;43.59
78354;BME280;67629;46.040;18.232;2023-05-01T10:52:11;99896.16;;;19.06;44.05
78354;BME280;67629;46.040;18.232;2023-05-01T11:00:17;99891.44;;;19.06;44.09
78354;BME280;67629;46.040;18.232;2023-05-01T11:02:39;99898.81;;;19.16;42.32
78354;BME280;67629;46.040;18.232;2023-05-01T11:09:58;99890.03;;;19.32;44.64
78354;BME280;67629;46.040;18.232;2023-05-01T11:12:47;99882.75;;;19.65;38.77
78354;BME280;67629;46.040;18.232;2023-05-01T11:15:09;99876.06;;;19.66;39.33
78354;BME280;67629;46.040;18.232;2023-05-01T11:18:44;99874.56;;;19.55;39.51
78354;BME280;67629;46.040;18.232;2023-05-01T11:20:48;99873.19;;;19.53;41.10
78354;BME280;67629;46.040;18.232;2023-05-01T11:22:30;99863.13;;;19.62;41.76
78354;BME280;67629;46.040;18.232;2023-05-01T11:24:36;99872.44;;;19.47;42.57
78354;BME280;67629;46.040;18.232;2023-05-01T11:26:17;99858.69;;;19.37;40.81
78354;BME280;67629;46.040;18.232;2023-05-01T11:29:45;99858.97;;;19.35;39.81
78354;BME280;67629;46.040;18.232;2023-05-01T11:31:11;99861.72;;;19.41;40.92
78354;BME280;67629;46.040;18.232;2023-05-01T11:32:18;99860.53;;;19.47;41.27
78354;BME280;67629;46.040;18.232;2023-05-01T11:33:58;99866.16;;;19.42;41.47
78354;BME280;67629;46.040;18.232;2023-05-01T11:36:03;99852.78;;;19.67;39.90
78354;BME280;67629;46.040;18.232;2023-05-01T11:37:07;99857.66;;;19.57;41.32
78354;BME280;67629;46.040;18.232;2023-05-01T11:39:13;99862.44;;;19.51;42.45
78354;BME280;67629;46.040;18.232;2023-05-01T11:42:14;99864.66;;;19.49;43.97